Time;durP1;ratioP1;P1;durP2;ratioP2;P2;SDS_P1;SDS_P2;PMS_P1;PMS_P2;Temp;Humidity;BMP_temperature;BMP_pressure;BME280_temperature;BME280_humidity;BME280_pressure;Samples;Min_cycle;Max_cycle;Signal;HPM_P1;HPM_P2
2024/03/23 00:01:44;;;;;;;9.13;4.90;;;10.00;99.90;;;;;;5078747;28;20435;-69
2024/03/23 00:04:12;;;;;;;12.07;4.70;;;9.90;99.90;;;;;;5069175;28;20427;-70
2024/03/23 00:06:39;;;;;;;14.70;4.70;;;9.90;99.90;;;;;;5065965;28;20531;-69
2024/03/23 00:09:06;;;;;;;15.10;5.43;;;9.90;99.90;;;;;;5073440;28;20478;-69
2024/03/23 00:11:36;;;;;;;18.63;4.70;;;9.90;99.90;;;;;;5069411;28;20425;-69
2024/03/23 00:14:03;;;;;;;18.00;4.50;;;9.80;99.90;;;;;;5054253;28;20421;-69
2024/03/23 00:16:30;;;;;;;9.57;5.00;;;9.80;99.90;;;;;;5047009;28;20464;-70
2024/03/23 00:19:00;;;;;;;15.93;6.30;;;9.80;99.90;;;;;;5070595;28;20459;-70
2024/03/23 00:21:26;;;;;;;11.00;4.63;;;9.80;99.90;;;;;;5076957;28;20414;-69
2024/03/23 00:23:53;;;;;;;12.73;6.77;;;9.80;99.90;;;;;;5055819;28;20420;-69
2024/03/23 00:26:20;;;;;;;13.57;5.53;;;9.80;99.90;;;;;;5063929;28;20436;-69
2024/03/23 00:28:46;;;;;;;7.80;4.60;;;9.80;99.90;;;;;;5069140;28;20448;-70
2024/03/23 00:31:13;;;;;;;15.40;6.33;;;9.80;99.90;;;;;;5073319;28;20523;-71
2024/03/23 00:33:39;;;;;;;15.60;6.17;;;9.70;99.90;;;;;;5073452;28;20413;-69
2024/03/23 00:36:06;;;;;;;14.50;5.60;;;9.70;99.90;;;;;;5068974;28;20460;-70
2024/03/23 00:38:32;;;;;;;12.70;5.90;;;9.60;99.90;;;;;;5068182;28;20456;-70
2024/03/23 00:40:58;;;;;;;16.63;4.90;;;9.60;99.90;;;;;;5073090;28;20915;-69
2024/03/23 00:43:28;;;;;;;11.30;7.07;;;9.60;99.90;;;;;;5071926;28;20784;-70
2024/03/23 00:45:54;;;;;;;12.00;5.60;;;9.50;99.90;;;;;;5066161;28;20432;-69
2024/03/23 00:48:21;;;;;;;6.50;5.57;;;9.60;99.90;;;;;;5063637;28;20885;-69
2024/03/23 00:50:47;;;;;;;8.67;4.90;;;9.50;99.90;;;;;;5064001;28;20448;-69
2024/03/23 00:53:14;;;;;;;11.53;5.50;;;9.50;99.90;;;;;;5068299;28;20844;-69
2024/03/23 00:55:40;;;;;;;6.33;4.00;;;9.50;99.90;;;;;;5043448;28;20444;-69
2024/03/23 00:58:06;;;;;;;7.23;4.20;;;9.50;99.90;;;;;;5070650;28;20440;-69
2024/03/23 01:00:31;;;;;;;11.37;4.30;;;9.60;99.90;;;;;;5066040;28;20462;-69
2024/03/23 01:02:57;;;;;;;5.23;3.20;;;9.50;99.90;;;;;;5072732;28;20166;-70
2024/03/23 01:05:22;;;;;;;5.93;4.07;;;9.50;99.90;;;;;;5070227;28;20178;-69
2024/03/23 01:07:48;;;;;;;4.70;3.90;;;9.50;99.90;;;;;;5069041;28;20731;-69
2024/03/23 01:10:13;;;;;;;8.43;4.00;;;9.40;99.90;;;;;;5072764;28;20625;-69
2024/03/23 01:12:39;;;;;;;4.77;3.70;;;9.40;99.90;;;;;;5072658;28;20523;-69
2024/03/23 01:15:05;;;;;;;8.93;3.13;;;9.40;99.90;;;;;;5070854;28;20695;-69
2024/03/23 01:17:30;;;;;;;3.23;2.87;;;9.30;99.90;;;;;;5070439;28;20548;-70
2024/03/23 01:19:56;;;;;;;5.37;3.60;;;9.30;99.90;;;;;;5072258;28;20193;-69
2024/03/23 01:22:21;;;;;;;10.63;3.00;;;9.20;99.90;;;;;;5053755;28;20166;-70
2024/03/23 01:24:47;;;;;;;2.40;2.10;;;9.20;99.90;;;;;;5060483;28;20174;-69
2024/03/23 01:27:12;;;;;;;3.43;1.93;;;9.10;99.90;;;;;;5080624;28;20177;-69
2024/03/23 01:29:38;;;;;;;2.80;1.73;;;9.10;99.90;;;;;;5071990;28;20665;-69
2024/03/23 01:32:04;;;;;;;2.63;2.43;;;9.10;99.90;;;;;;5072573;28;20173;-69
2024/03/23 01:34:30;;;;;;;8.53;2.63;;;9.10;99.90;;;;;;5072228;28;20397;-69
2024/03/23 01:36:55;;;;;;;10.70;2.93;;;9.10;99.90;;;;;;5072117;28;20448;-70
2024/03/23 01:39:21;;;;;;;5.07;3.20;;;9.00;99.90;;;;;;5072043;28;20671;-70
2024/03/23 01:41:46;;;;;;;10.73;3.87;;;8.90;99.90;;;;;;5050228;28;20175;-69
2024/03/23 01:44:12;;;;;;;7.13;2.70;;;8.90;99.90;;;;;;5073798;28;20162;-69
2024/03/23 01:46:38;;;;;;;5.00;3.33;;;8.90;99.90;;;;;;5070429;28;20170;-70
2024/03/23 01:49:05;;;;;;;7.10;3.20;;;8.90;99.90;;;;;;5070236;28;20190;-69
2024/03/23 01:51:32;;;;;;;6.90;2.10;;;8.90;99.90;;;;;;5053303;28;20499;-69
2024/03/23 01:54:00;;;;;;;8.83;3.00;;;8.90;99.90;;;;;;5067788;28;20862;-70
2024/03/23 01:56:26;;;;;;;3.57;3.00;;;8.90;99.90;;;;;;5054135;28;20449;-69
2024/03/23 01:58:52;;;;;;;4.17;3.07;;;8.90;99.90;;;;;;5071831;28;20477;-70
2024/03/23 02:01:17;;;;;;;8.20;2.80;;;8.90;99.90;;;;;;5069839;28;20178;-69
2024/03/23 02:03:43;;;;;;;4.60;2.93;;;8.80;99.90;;;;;;5037834;28;20178;-70
2024/03/23 02:06:08;;;;;;;6.73;2.20;;;8.80;99.90;;;;;;5063235;28;20193;-70
2024/03/23 02:08:34;;;;;;;2.03;1.83;;;8.80;99.90;;;;;;5060880;28;20687;-70
2024/03/23 02:11:00;;;;;;;3.30;1.50;;;8.80;99.90;;;;;;5073012;28;20212;-69
2024/03/23 02:13:25;;;;;;;3.40;1.50;;;8.80;99.90;;;;;;5034214;28;20410;-69
2024/03/23 02:15:51;;;;;;;4.20;1.83;;;8.90;99.90;;;;;;5054179;28;20747;-70
2024/03/23 02:18:16;;;;;;;2.73;1.70;;;8.90;99.90;;;;;;5067091;28;20193;-70
2024/03/23 02:20:42;;;;;;;5.60;1.33;;;8.90;99.90;;;;;;5062734;28;20190;-70
2024/03/23 02:23:20;;;;;;;1.70;1.00;;;8.80;99.90;;;;;;5069610;28;20174;-69
2024/03/23 02:25:46;;;;;;;5.17;1.47;;;8.70;99.90;;;;;;5056168;28;20205;-69
2024/03/23 02:28:12;;;;;;;1.43;1.00;;;8.50;99.90;;;;;;5056321;28;20468;-69
2024/03/23 02:30:38;;;;;;;4.17;1.73;;;8.30;99.90;;;;;;5071850;28;20178;-70
2024/03/23 02:33:04;;;;;;;3.93;1.20;;;8.20;99.90;;;;;;5066645;28;20204;-69
2024/03/23 02:35:30;;;;;;;3.30;1.20;;;8.10;99.90;;;;;;5071605;28;20931;-69
2024/03/23 02:37:56;;;;;;;3.67;1.03;;;8.00;99.90;;;;;;5053715;28;20420;-69
2024/03/23 02:40:23;;;;;;;2.70;1.33;;;8.00;99.90;;;;;;5071629;28;20162;-69
2024/03/23 02:42:49;;;;;;;1.27;0.80;;;7.90;99.90;;;;;;5064567;28;20908;-69
2024/03/23 02:45:14;;;;;;;9.60;1.87;;;7.80;99.90;;;;;;5052788;28;20416;-69
2024/03/23 02:47:40;;;;;;;4.97;0.80;;;7.80;99.90;;;;;;5063026;28;20171;-69
2024/03/23 02:50:06;;;;;;;3.53;1.20;;;7.70;99.90;;;;;;5064794;28;20205;-69
2024/03/23 02:52:31;;;;;;;4.40;1.37;;;7.70;99.90;;;;;;5055514;28;20194;-69
2024/03/23 02:54:57;;;;;;;2.63;2.30;;;7.60;99.90;;;;;;5071371;28;20843;-69
2024/03/23 02:57:23;;;;;;;8.27;1.30;;;7.60;99.90;;;;;;5058518;28;20285;-69
2024/03/23 02:59:48;;;;;;;2.00;1.00;;;7.60;99.90;;;;;;5059290;28;20475;-69
2024/03/23 03:02:15;;;;;;;14.40;2.10;;;7.60;99.90;;;;;;5064249;28;20622;-69
2024/03/23 03:04:41;;;;;;;2.40;0.97;;;7.60;99.90;;;;;;5052362;28;20233;-69
2024/03/23 03:07:06;;;;;;;4.00;0.80;;;7.60;99.90;;;;;;5063196;28;20423;-69
2024/03/23 03:09:32;;;;;;;2.30;1.00;;;7.50;99.90;;;;;;5068097;28;20194;-69
2024/03/23 03:11:58;;;;;;;1.60;1.00;;;7.60;99.90;;;;;;5061405;28;20182;-69
2024/03/23 03:14:24;;;;;;;1.63;1.20;;;7.50;99.90;;;;;;5054974;28;20508;-69
2024/03/23 03:16:49;;;;;;;4.03;0.93;;;7.50;99.90;;;;;;5063296;28;20260;-69
2024/03/23 03:19:16;;;;;;;3.90;1.40;;;7.50;99.90;;;;;;5072065;28;20186;-69
2024/03/23 03:21:42;;;;;;;1.20;1.00;;;7.60;99.90;;;;;;5069575;28;20179;-69
2024/03/23 03:24:07;;;;;;;1.00;0.80;;;7.50;99.90;;;;;;5056754;28;20410;-69
2024/03/23 03:26:33;;;;;;;6.47;1.53;;;7.50;99.90;;;;;;5056303;28;20182;-69
2024/03/23 03:28:59;;;;;;;1.53;0.90;;;7.50;99.90;;;;;;5070350;28;20198;-69
2024/03/23 03:31:24;;;;;;;2.30;1.43;;;7.50;99.90;;;;;;5072183;28;20634;-69
2024/03/23 03:33:51;;;;;;;7.60;1.30;;;7.50;99.90;;;;;;5053976;28;20186;-69
2024/03/23 03:36:16;;;;;;;1.80;1.10;;;7.50;99.90;;;;;;5062599;28;20206;-69
2024/03/23 03:38:42;;;;;;;1.50;1.23;;;7.50;99.90;;;;;;5069856;28;20976;-70
2024/03/23 03:41:08;;;;;;;3.20;1.40;;;7.50;99.90;;;;;;5054817;28;20178;-69
2024/03/23 03:43:33;;;;;;;2.00;1.37;;;7.50;99.90;;;;;;5072539;28;20199;-69
2024/03/23 03:46:00;;;;;;;1.47;1.17;;;7.50;99.90;;;;;;5071215;28;20178;-69
2024/03/23 03:48:26;;;;;;;4.17;1.47;;;7.50;99.90;;;;;;5066586;28;20201;-69
2024/03/23 03:50:52;;;;;;;8.13;1.30;;;7.50;99.90;;;;;;5069694;28;20818;-69
2024/03/23 03:53:18;;;;;;;3.53;1.90;;;7.50;99.90;;;;;;5069331;28;20193;-69
2024/03/23 03:55:44;;;;;;;9.47;1.60;;;7.50;99.90;;;;;;5071280;28;20459;-70
2024/03/23 03:58:09;;;;;;;4.87;2.37;;;7.50;99.90;;;;;;5050965;28;20202;-69
2024/03/23 04:00:35;;;;;;;9.93;2.40;;;7.40;99.90;;;;;;5071275;28;20545;-69
2024/03/23 04:03:01;;;;;;;2.17;1.27;;;7.50;99.90;;;;;;5064695;28;20609;-69
2024/03/23 04:05:27;;;;;;;3.67;1.53;;;7.50;99.90;;;;;;5057265;28;20455;-69
2024/03/23 04:07:52;;;;;;;4.83;1.53;;;7.40;99.90;;;;;;5068049;28;20413;-69
2024/03/23 04:10:18;;;;;;;2.53;1.40;;;7.40;99.90;;;;;;5072130;28;20407;-69
2024/03/23 04:12:45;;;;;;;9.13;1.93;;;7.40;99.90;;;;;;5059393;28;20264;-69
2024/03/23 04:15:10;;;;;;;1.77;1.17;;;7.40;99.90;;;;;;5062752;28;20176;-70
2024/03/23 04:17:36;;;;;;;5.50;1.43;;;7.50;99.90;;;;;;5060733;28;20464;-70
2024/03/23 04:20:04;;;;;;;9.43;1.60;;;7.40;99.90;;;;;;5065247;28;20228;-70
2024/03/23 04:22:29;;;;;;;13.97;2.60;;;7.40;99.90;;;;;;5067018;28;20617;-69
2024/03/23 04:24:56;;;;;;;12.50;2.50;;;7.40;99.90;;;;;;5071755;28;20454;-69
2024/03/23 04:27:23;;;;;;;6.70;1.97;;;7.40;99.90;;;;;;5066302;28;20213;-69
2024/03/23 04:29:49;;;;;;;3.87;1.60;;;7.30;99.90;;;;;;5069366;28;20866;-69
2024/03/23 04:32:16;;;;;;;9.23;2.17;;;7.20;99.90;;;;;;5071959;28;20522;-69
2024/03/23 04:34:42;;;;;;;10.07;2.30;;;7.10;99.90;;;;;;5090284;28;20415;-69
2024/03/23 04:37:07;;;;;;;5.13;1.70;;;7.00;99.90;;;;;;5077405;28;20970;-69
2024/03/23 04:39:33;;;;;;;3.07;1.57;;;6.90;99.90;;;;;;5066999;28;20304;-69
2024/03/23 04:41:59;;;;;;;8.43;2.07;;;6.70;99.90;;;;;;5056714;28;20177;-69
2024/03/23 04:44:24;;;;;;;4.63;1.73;;;6.60;99.90;;;;;;5057238;28;20692;-69
2024/03/23 04:46:50;;;;;;;1.93;1.30;;;6.60;99.90;;;;;;5065761;28;20245;-69
2024/03/23 04:49:15;;;;;;;3.90;2.13;;;6.40;99.90;;;;;;5060947;28;20297;-69
2024/03/23 04:51:45;;;;;;;4.63;1.50;;;6.40;99.90;;;;;;5071652;28;20228;-69
2024/03/23 04:54:14;;;;;;;9.23;1.67;;;6.30;99.90;;;;;;5058039;28;20253;-69
2024/03/23 04:56:40;;;;;;;4.73;1.93;;;6.30;99.90;;;;;;5052689;28;20467;-69
2024/03/23 04:59:05;;;;;;;4.07;1.30;;;6.20;99.90;;;;;;5065487;28;20444;-70
2024/03/23 05:01:31;;;;;;;3.40;1.47;;;6.20;99.90;;;;;;5070315;28;20792;-69
2024/03/23 05:03:57;;;;;;;4.23;1.90;;;6.10;99.90;;;;;;5070048;28;20178;-70
2024/03/23 05:06:24;;;;;;;4.03;1.40;;;6.10;99.90;;;;;;5063274;28;20425;-70
2024/03/23 05:08:49;;;;;;;4.70;1.73;;;6.10;99.90;;;;;;5053856;28;20851;-70
2024/03/23 05:11:15;;;;;;;17.10;8.47;;;6.20;99.90;;;;;;5053347;28;20421;-70
2024/03/23 05:13:41;;;;;;;3.47;1.50;;;6.20;99.90;;;;;;5056993;28;20178;-70
2024/03/23 05:16:07;;;;;;;8.20;2.03;;;6.20;99.90;;;;;;5065895;28;20613;-69
2024/03/23 05:18:32;;;;;;;4.43;1.40;;;6.30;99.90;;;;;;5056841;28;20849;-70
2024/03/23 05:20:58;;;;;;;6.47;4.87;;;6.30;99.90;;;;;;5066992;28;20183;-69
2024/03/23 05:23:25;;;;;;;7.47;2.17;;;6.30;99.90;;;;;;5067479;28;20182;-69
2024/03/23 05:25:51;;;;;;;13.47;2.17;;;6.30;99.90;;;;;;5060483;28;20413;-69
2024/03/23 05:28:17;;;;;;;5.70;1.57;;;6.20;99.90;;;;;;5035724;28;20471;-69
2024/03/23 05:30:43;;;;;;;6.10;1.43;;;6.30;99.90;;;;;;5055673;28;20421;-69
2024/03/23 05:33:08;;;;;;;5.50;1.50;;;6.30;99.90;;;;;;5050389;28;20413;-70
2024/03/23 05:35:34;;;;;;;8.20;1.73;;;6.30;99.90;;;;;;5061369;28;20198;-70
2024/03/23 05:38:00;;;;;;;4.20;2.07;;;6.20;99.90;;;;;;5067746;28;20212;-70
2024/03/23 05:40:26;;;;;;;9.80;1.80;;;6.10;99.90;;;;;;5053278;28;20253;-69
2024/03/23 05:42:55;;;;;;;8.30;1.60;;;6.10;99.90;;;;;;5059844;28;20921;-69
2024/03/23 05:45:22;;;;;;;5.63;2.80;;;6.00;99.90;;;;;;5066242;28;20412;-69
2024/03/23 05:47:48;;;;;;;6.40;2.10;;;6.00;99.90;;;;;;5068574;28;20415;-69
2024/03/23 05:50:14;;;;;;;3.43;2.20;;;5.90;99.90;;;;;;5062669;28;20405;-70
2024/03/23 05:52:39;;;;;;;8.50;2.20;;;5.90;99.90;;;;;;5080046;28;20435;-69
2024/03/23 05:55:06;;;;;;;7.60;2.20;;;5.80;99.90;;;;;;5078853;28;20178;-69
2024/03/23 05:57:32;;;;;;;4.77;2.10;;;5.80;99.90;;;;;;5070398;28;20238;-69
2024/03/23 05:59:57;;;;;;;7.53;2.20;;;5.80;99.90;;;;;;5052022;28;20480;-69
2024/03/23 06:02:24;;;;;;;6.57;2.37;;;5.80;99.90;;;;;;5054086;28;20202;-69
2024/03/23 06:04:49;;;;;;;3.53;1.80;;;5.80;99.90;;;;;;5058295;28;20178;-69
2024/03/23 06:07:15;;;;;;;5.47;2.87;;;5.80;99.90;;;;;;5056502;28;20518;-69
2024/03/23 06:09:41;;;;;;;6.60;2.20;;;5.80;99.90;;;;;;5080433;28;20197;-70
2024/03/23 06:12:07;;;;;;;9.67;2.40;;;5.80;99.90;;;;;;5070057;28;20182;-70
2024/03/23 06:14:33;;;;;;;4.77;1.83;;;5.70;99.90;;;;;;5071847;28;20405;-69
2024/03/23 06:16:59;;;;;;;2.57;1.80;;;5.70;99.90;;;;;;5056796;28;20984;-69
2024/03/23 06:19:27;;;;;;;7.70;2.40;;;5.80;99.90;;;;;;5048636;28;20933;-69
2024/03/23 06:21:56;;;;;;;6.50;3.00;;;5.80;99.90;;;;;;5065983;28;20416;-69
2024/03/23 06:24:24;;;;;;;13.50;3.33;;;5.80;99.90;;;;;;5070289;28;20536;-69
2024/03/23 06:26:50;;;;;;;4.13;2.60;;;6.00;99.90;;;;;;5064521;28;20420;-69
2024/03/23 06:29:15;;;;;;;10.13;2.40;;;6.30;99.90;;;;;;5053876;28;20436;-69
2024/03/23 06:31:41;;;;;;;11.13;2.47;;;6.60;99.90;;;;;;5063910;28;20265;-70
2024/03/23 06:34:06;;;;;;;8.20;2.50;;;6.80;99.90;;;;;;5033782;28;20563;-67
2024/03/23 06:36:32;;;;;;;9.70;3.10;;;7.10;99.90;;;;;;5058402;28;20313;-68
2024/03/23 06:38:58;;;;;;;5.67;1.90;;;7.40;99.90;;;;;;5057531;28;20190;-67
2024/03/23 06:41:24;;;;;;;7.93;2.20;;;7.70;99.90;;;;;;5058808;28;20479;-67
2024/03/23 06:43:50;;;;;;;12.80;2.80;;;7.90;99.90;;;;;;5064312;28;20548;-68
2024/03/23 06:46:15;;;;;;;5.10;2.20;;;8.40;99.90;;;;;;5072272;28;20416;-67
2024/03/23 06:48:41;;;;;;;5.13;2.57;;;8.50;99.90;;;;;;5072243;28;20255;-67
2024/03/23 06:51:06;;;;;;;11.33;2.17;;;8.80;99.90;;;;;;5045633;28;20530;-67
2024/03/23 06:53:32;;;;;;;10.87;2.40;;;8.70;99.90;;;;;;5044587;28;20293;-68
2024/03/23 06:55:58;;;;;;;3.37;1.87;;;8.60;99.90;;;;;;5072260;28;20198;-67
2024/03/23 06:58:24;;;;;;;6.90;2.90;;;8.70;99.90;;;;;;5084755;28;20238;-67
2024/03/23 07:00:50;;;;;;;7.20;2.87;;;8.60;99.90;;;;;;5062082;28;20183;-68
2024/03/23 07:03:17;;;;;;;4.63;2.10;;;8.60;99.90;;;;;;5069072;28;20432;-68
2024/03/23 07:05:42;;;;;;;4.47;2.60;;;8.50;99.90;;;;;;5056356;28;20210;-68
2024/03/23 07:08:08;;;;;;;5.97;2.73;;;8.50;99.90;;;;;;5053424;28;20479;-68
2024/03/23 07:10:34;;;;;;;3.77;2.50;;;8.70;99.90;;;;;;5056429;28;20185;-68
2024/03/23 07:13:00;;;;;;;3.03;2.20;;;8.70;99.90;;;;;;5068067;28;20190;-68
2024/03/23 07:15:25;;;;;;;6.80;2.93;;;8.70;99.90;;;;;;5053680;28;20174;-67
2024/03/23 07:17:51;;;;;;;4.50;3.07;;;8.90;99.90;;;;;;5059498;28;20660;-68
2024/03/23 07:20:16;;;;;;;16.53;4.10;;;9.00;99.90;;;;;;5066713;28;20579;-68
2024/03/23 07:22:42;;;;;;;7.10;2.97;;;9.40;99.90;;;;;;5067076;28;20590;-67
2024/03/23 07:25:07;;;;;;;4.97;3.60;;;10.60;99.90;;;;;;5036852;28;20171;-68
2024/03/23 07:27:33;;;;;;;13.13;3.63;;;12.00;99.90;;;;;;5057150;28;20237;-68
2024/03/23 07:30:00;;;;;;;5.93;3.27;;;13.40;99.90;;;;;;5067022;28;20202;-68
2024/03/23 07:32:26;;;;;;;9.30;3.00;;;14.70;99.90;;;;;;5074578;28;20415;-68
2024/03/23 07:34:52;;;;;;;6.50;4.17;;;15.40;99.90;;;;;;5066743;28;20422;-68
2024/03/23 07:37:17;;;;;;;14.10;4.17;;;16.30;99.90;;;;;;5065408;28;20288;-68
2024/03/23 07:39:43;;;;;;;5.30;3.17;;;17.40;99.90;;;;;;5065587;28;20565;-68
2024/03/23 07:42:08;;;;;;;4.40;2.90;;;17.60;99.90;;;;;;5066449;28;20186;-68
2024/03/23 07:44:34;;;;;;;9.47;2.90;;;18.00;99.00;;;;;;5062884;28;20196;-68
2024/03/23 07:47:03;;;;;;;5.47;3.30;;;17.80;92.60;;;;;;5059130;28;20178;-68
2024/03/23 07:49:28;;;;;;;10.70;3.10;;;16.60;90.90;;;;;;5062155;28;20207;-70
2024/03/23 07:51:54;;;;;;;5.03;3.40;;;17.00;99.90;;;;;;5061515;28;20969;-70
2024/03/23 07:54:19;;;;;;;4.70;3.10;;;17.10;93.60;;;;;;5046886;28;20178;-70
2024/03/23 07:56:45;;;;;;;4.97;2.70;;;17.50;85.90;;;;;;5062256;28;20217;-70
2024/03/23 07:59:11;;;;;;;6.57;2.93;;;17.80;79.70;;;;;;5053729;28;20269;-70
2024/03/23 08:01:36;;;;;;;10.03;3.13;;;18.10;75.80;;;;;;5056372;28;20214;-70
2024/03/23 08:04:02;;;;;;;5.90;2.97;;;18.50;60.00;;;;;;5064845;28;20178;-71
2024/03/23 08:06:27;;;;;;;2.93;2.50;;;19.20;57.50;;;;;;5056126;28;20182;-70
2024/03/23 08:09:01;;;;;;;3.40;2.00;;;20.60;56.80;;;;;;5060060;28;20681;-72
2024/03/23 08:11:29;;;;;;;3.17;2.00;;;21.90;52.10;;;;;;5057159;28;20195;-71
2024/03/23 08:13:55;;;;;;;6.93;2.33;;;23.20;48.40;;;;;;5070094;28;20458;-68
2024/03/23 08:16:21;;;;;;;9.83;1.70;;;24.50;44.50;;;;;;5058009;28;20544;-69
2024/03/23 08:18:46;;;;;;;3.50;1.63;;;24.50;36.60;;;;;;5054266;28;20430;-69
2024/03/23 08:21:12;;;;;;;3.20;2.17;;;25.40;36.70;;;;;;5064067;28;20934;-69
2024/03/23 08:23:39;;;;;;;7.70;2.47;;;25.40;34.00;;;;;;5059892;28;20521;-69
2024/03/23 08:26:10;;;;;;;3.93;3.07;;;25.60;34.30;;;;;;5056153;28;20428;-69
2024/03/23 08:28:36;;;;;;;4.07;2.90;;;25.90;33.60;;;;;;5060975;28;20444;-69
2024/03/23 08:31:05;;;;;;;7.03;2.80;;;26.00;32.70;;;;;;5061519;28;20432;-69
2024/03/23 08:33:31;;;;;;;6.00;4.07;;;26.60;33.50;;;;;;5075302;28;20416;-68
2024/03/23 08:36:01;;;;;;;3.90;3.10;;;26.80;32.10;;;;;;5057901;28;21006;-70
2024/03/23 08:38:28;;;;;;;5.93;3.33;;;26.60;32.50;;;;;;5074719;28;20216;-69
2024/03/23 08:41:04;;;;;;;6.20;3.87;;;26.80;32.70;;;;;;5064789;28;20439;-69
2024/03/23 08:43:35;;;;;;;4.40;2.47;;;27.50;33.50;;;;;;5075842;28;20419;-71
2024/03/23 08:46:05;;;;;;;5.80;3.80;;;28.00;33.00;;;;;;5061725;28;20444;-69
2024/03/23 08:48:31;;;;;;;9.20;3.20;;;27.30;30.30;;;;;;5072712;28;20428;-69
2024/03/23 08:51:01;;;;;;;3.73;3.43;;;24.20;30.40;;;;;;5072786;28;20938;-69
2024/03/23 08:53:30;;;;;;;5.27;3.10;;;23.50;33.20;;;;;;5078686;28;20176;-68
2024/03/23 08:56:00;;;;;;;3.50;3.20;;;22.80;34.90;;;;;;5072974;28;20521;-72
2024/03/23 08:58:27;;;;;;;8.10;3.33;;;22.20;36.10;;;;;;5068472;28;20867;-70
2024/03/23 09:00:56;;;;;;;7.03;2.77;;;22.60;38.50;;;;;;5092995;28;20395;-71
2024/03/23 09:03:25;;;;;;;6.40;2.30;;;22.50;38.60;;;;;;5092876;28;20403;-69
2024/03/23 09:05:51;;;;;;;6.43;2.80;;;23.30;39.10;;;;;;5072914;28;20467;-69
2024/03/23 09:08:17;;;;;;;4.60;3.00;;;22.40;37.10;;;;;;5062477;28;20451;-69
2024/03/23 09:10:43;;;;;;;3.83;2.30;;;20.90;36.90;;;;;;5062997;28;20413;-68
2024/03/23 09:13:09;;;;;;;4.40;2.33;;;19.70;37.70;;;;;;5066010;28;20167;-69
2024/03/23 09:15:36;;;;;;;4.13;2.63;;;18.20;38.60;;;;;;5061393;28;20170;-69
2024/03/23 09:18:05;;;;;;;3.87;2.17;;;16.90;40.30;;;;;;5071706;28;20537;-69
2024/03/23 09:20:33;;;;;;;6.27;2.30;;;16.90;43.20;;;;;;5071667;28;20404;-69
2024/03/23 09:22:59;;;;;;;5.90;2.83;;;18.70;45.40;;;;;;5052228;28;20868;-70
2024/03/23 09:25:24;;;;;;;2.50;2.30;;;21.70;45.80;;;;;;5071943;28;20514;-70
2024/03/23 09:27:50;;;;;;;7.20;3.40;;;22.80;40.40;;;;;;5083012;28;20218;-71
2024/03/23 09:30:19;;;;;;;5.60;1.97;;;23.00;38.50;;;;;;5071857;28;20178;-70
2024/03/23 09:32:45;;;;;;;7.13;2.60;;;24.40;38.00;;;;;;5054867;28;20429;-70
2024/03/23 09:35:11;;;;;;;3.30;3.00;;;26.40;36.10;;;;;;5069622;28;20420;-70
2024/03/23 09:37:40;;;;;;;6.07;2.63;;;27.60;32.60;;;;;;5060835;28;20201;-71
2024/03/23 09:40:13;;;;;;;3.63;2.67;;;26.60;29.60;;;;;;5056866;28;20429;-69
2024/03/23 09:42:39;;;;;;;7.87;2.87;;;25.60;30.80;;;;;;5054106;28;20954;-70
2024/03/23 09:45:09;;;;;;;3.83;2.33;;;25.20;30.90;;;;;;5066301;28;20406;-69
2024/03/23 09:47:35;;;;;;;3.60;2.17;;;24.80;31.70;;;;;;5066699;28;20423;-70
2024/03/23 09:50:01;;;;;;;4.83;2.03;;;26.30;31.90;;;;;;5060365;28;20424;-70
2024/03/23 09:52:27;;;;;;;2.30;2.00;;;26.20;29.90;;;;;;5056205;28;21343;-70
2024/03/23 09:54:52;;;;;;;4.03;2.60;;;24.60;28.90;;;;;;5062043;28;20429;-68
2024/03/23 09:57:18;;;;;;;5.70;1.80;;;23.10;29.90;;;;;;5062450;28;20199;-68
2024/03/23 09:59:43;;;;;;;11.47;2.30;;;24.30;32.90;;;;;;5068331;28;20617;-65
2024/03/23 10:02:10;;;;;;;3.90;2.30;;;24.70;31.60;;;;;;5068526;28;20170;-67
2024/03/23 10:04:40;;;;;;;2.80;2.43;;;24.70;31.60;;;;;;5062185;28;20167;-67
2024/03/23 10:07:19;;;;;;;5.93;2.50;;;25.30;31.80;;;;;;5061073;28;20428;-67
2024/03/23 10:09:45;;;;;;;3.17;2.37;;;26.60;32.10;;;;;;5065686;28;20855;-67
2024/03/23 10:12:17;;;;;;;4.20;2.40;;;26.90;31.00;;;;;;5056902;28;20434;-67
2024/03/23 10:14:43;;;;;;;3.10;2.03;;;27.10;31.10;;;;;;5062864;28;20565;-67
2024/03/23 10:17:17;;;;;;;4.97;2.27;;;26.80;30.40;;;;;;5062257;28;20456;-67
2024/03/23 10:19:43;;;;;;;3.40;1.97;;;26.90;30.20;;;;;;5059178;28;20998;-67
2024/03/23 10:22:10;;;;;;;4.27;1.90;;;25.50;29.60;;;;;;5058167;28;20474;-67
2024/03/23 10:24:36;;;;;;;3.80;2.00;;;23.70;29.70;;;;;;5063133;28;20771;-68
2024/03/23 10:27:01;;;;;;;7.97;2.20;;;21.50;30.00;;;;;;5068902;28;20423;-69
2024/03/23 10:29:28;;;;;;;5.60;1.70;;;19.60;30.40;;;;;;5061859;28;20741;-69
2024/03/23 10:31:55;;;;;;;4.40;1.87;;;18.00;31.50;;;;;;5058397;28;20178;-70
2024/03/23 10:34:26;;;;;;;3.13;1.80;;;16.70;33.30;;;;;;5063790;28;20448;-70
2024/03/23 10:36:54;;;;;;;4.37;1.93;;;15.90;35.50;;;;;;5058043;28;20814;-69
2024/03/23 10:39:21;;;;;;;1.97;1.40;;;14.80;37.40;;;;;;5070130;28;20481;-68
2024/03/23 10:41:53;;;;;;;3.70;1.60;;;14.60;39.50;;;;;;5072105;28;20417;-68
2024/03/23 10:44:19;;;;;;;3.23;1.83;;;15.90;41.90;;;;;;5044977;28;20504;-69
2024/03/23 10:46:45;;;;;;;6.13;2.20;;;17.40;43.00;;;;;;5063287;28;20420;-70
2024/03/23 10:49:11;;;;;;;4.20;1.53;;;19.40;43.20;;;;;;5037085;28;20444;-69
2024/03/23 10:51:39;;;;;;;2.73;1.80;;;19.90;41.10;;;;;;5050785;28;20784;-69
2024/03/23 10:54:07;;;;;;;1.97;1.30;;;18.90;38.90;;;;;;5058287;28;20186;-69
2024/03/23 10:56:35;;;;;;;2.23;1.90;;;16.40;37.80;;;;;;5091118;28;20471;-69
2024/03/23 10:59:05;;;;;;;3.97;2.10;;;15.80;40.40;;;;;;5091305;28;20434;-68
2024/03/23 11:01:31;;;;;;;2.80;1.60;;;18.20;44.50;;;;;;5091315;28;20486;-69
2024/03/23 11:03:56;;;;;;;2.90;1.40;;;22.20;45.80;;;;;;5091158;28;20490;-70
2024/03/23 11:06:40;;;;;;;2.47;1.60;;;25.80;42.00;;;;;;5091018;28;20184;-69
2024/03/23 11:09:34;;;;;;;3.03;1.73;;;27.00;36.00;;;;;;5082913;28;20194;-70
2024/03/23 11:12:23;;;;;;;2.17;1.60;;;29.80;34.30;;;;;;5074394;28;20772;-69
2024/03/23 11:14:50;;;;;;;1.60;1.50;;;30.20;30.50;;;;;;5065518;28;20423;-69
2024/03/23 11:17:23;;;;;;;3.40;1.87;;;28.40;28.90;;;;;;5069931;28;20871;-70
2024/03/23 11:20:03;;;;;;;2.77;2.23;;;26.10;28.60;;;;;;5065433;28;20456;-69
2024/03/23 11:22:40;;;;;;;3.90;1.50;;;23.80;29.20;;;;;;5068900;28;20459;-70
2024/03/23 11:25:25;;;;;;;2.00;1.57;;;21.80;30.00;;;;;;5075913;28;20449;-68
2024/03/23 11:27:52;;;;;;;2.07;1.00;;;20.10;31.70;;;;;;5070510;28;21143;-69
2024/03/23 11:30:24;;;;;;;1.50;1.10;;;20.60;36.10;;;;;;5072172;28;20938;-69
2024/03/23 11:32:53;;;;;;;2.37;1.10;;;24.00;40.20;;;;;;5074420;28;20858;-69
2024/03/23 11:35:33;;;;;;;1.67;1.50;;;26.20;37.70;;;;;;5073887;28;20415;-70
2024/03/23 11:38:09;;;;;;;3.47;1.77;;;25.40;34.10;;;;;;5052334;28;20401;-69
2024/03/23 11:40:37;;;;;;;2.67;2.20;;;24.00;33.40;;;;;;5071639;28;20456;-68
2024/03/23 11:43:07;;;;;;;1.97;1.20;;;22.80;34.60;;;;;;5076001;28;20478;-69
2024/03/23 11:45:42;;;;;;;3.83;1.87;;;22.00;35.20;;;;;;5045994;28;20444;-68
2024/03/23 11:48:15;;;;;;;2.33;1.30;;;21.00;35.70;;;;;;5073904;28;20436;-69
2024/03/23 11:50:43;;;;;;;1.67;1.27;;;19.60;36.10;;;;;;5077018;28;20420;-70
2024/03/23 11:53:11;;;;;;;1.80;0.90;;;18.30;36.70;;;;;;5082551;28;20439;-70
2024/03/23 11:55:51;;;;;;;1.10;1.00;;;16.90;37.30;;;;;;5078119;28;20432;-70
2024/03/23 11:58:18;;;;;;;1.43;1.17;;;15.90;37.90;;;;;;5081190;28;20777;-69
2024/03/23 12:01:01;;;;;;;1.00;0.90;;;15.10;38.70;;;;;;5084035;28;20511;-70
2024/03/23 12:03:30;;;;;;;1.30;1.20;;;14.40;39.80;;;;;;5066429;28;20491;-70
2024/03/23 12:05:58;;;;;;;2.07;1.17;;;13.90;40.70;;;;;;5077192;28;20934;-71
2024/03/23 12:08:25;;;;;;;6.60;1.23;;;14.80;43.50;;;;;;5084147;28;20478;-70
2024/03/23 12:11:05;;;;;;;4.70;1.67;;;18.80;46.80;;;;;;5080143;28;20423;-70
2024/03/23 12:13:31;;;;;;;1.43;1.33;;;22.70;43.90;;;;;;5063215;28;20795;-70
2024/03/23 12:16:08;;;;;;;1.90;1.40;;;22.00;37.10;;;;;;5072788;28;20451;-70
2024/03/23 12:18:34;;;;;;;1.07;0.97;;;20.20;35.30;;;;;;5068140;28;20556;-71
2024/03/23 12:21:00;;;;;;;2.07;1.30;;;18.60;36.10;;;;;;5070248;28;20428;-70
2024/03/23 12:23:25;;;;;;;1.10;0.90;;;17.80;38.20;;;;;;5072341;28;20201;-71
2024/03/23 12:25:51;;;;;;;1.00;0.90;;;18.00;40.00;;;;;;5080654;28;20174;-69
2024/03/23 12:28:17;;;;;;;1.50;1.30;;;17.70;40.70;;;;;;5080072;28;20652;-70
2024/03/23 12:30:42;;;;;;;1.53;1.10;;;17.40;41.60;;;;;;5075140;28;20184;-71
2024/03/23 12:33:08;;;;;;;1.00;0.80;;;16.60;41.40;;;;;;5085039;28;20205;-70
2024/03/23 12:35:33;;;;;;;1.43;1.10;;;15.40;41.20;;;;;;5092970;28;20721;-69
2024/03/23 12:37:59;;;;;;;1.00;0.90;;;14.60;42.20;;;;;;5085515;28;20535;-69
2024/03/23 12:40:25;;;;;;;0.80;0.70;;;14.40;43.90;;;;;;5078038;28;20173;-69
2024/03/23 12:42:50;;;;;;;1.40;0.90;;;14.40;45.30;;;;;;5079664;28;20178;-71
2024/03/23 12:45:16;;;;;;;3.17;0.80;;;14.40;46.80;;;;;;5081251;28;20170;-70
2024/03/23 12:47:42;;;;;;;2.10;1.50;;;15.10;48.40;;;;;;5075090;28;20531;-70
2024/03/23 12:50:08;;;;;;;2.60;0.87;;;16.90;50.80;;;;;;5070539;28;20989;-71